createdAt,value
2022-10-16T00:03:07.890Z,1002.052
2022-10-16T00:23:07.588Z,1002.011
2022-10-16T00:43:07.140Z,1001.962
2022-10-16T01:03:08.798Z,1001.991
2022-10-16T01:23:07.707Z,1002.161
2022-10-16T01:43:07.593Z,1002.389
2022-10-16T02:03:08.286Z,1002.307
2022-10-16T02:23:08.116Z,1002.368
2022-10-16T02:43:07.972Z,1002.398
2022-10-16T03:03:08.695Z,1002.513
2022-10-16T03:23:07.408Z,1002.497
2022-10-16T03:43:07.296Z,1002.486
2022-10-16T04:03:08.303Z,1002.488
2022-10-16T04:23:08.028Z,1002.547
2022-10-16T04:43:07.249Z,1002.791
2022-10-16T05:03:08.610Z,1003.016
2022-10-16T05:23:07.713Z,1003.188
2022-10-16T05:43:07.529Z,1003.256
2022-10-16T06:03:08.371Z,1003.616
2022-10-16T06:23:08.084Z,1003.832
2022-10-16T06:43:07.924Z,1004.104
2022-10-16T07:03:08.899Z,1004.357
2022-10-16T07:23:07.681Z,1004.704
2022-10-16T07:43:07.406Z,1005.022
2022-10-16T08:03:08.202Z,1005.246
2022-10-16T08:23:08.038Z,1005.391
2022-10-16T08:43:07.842Z,1005.725
2022-10-16T09:03:08.656Z,1006.061
2022-10-16T09:23:07.543Z,1006.258
2022-10-16T09:43:07.459Z,1006.282
2022-10-16T10:03:08.144Z,1006.424
2022-10-16T10:23:08.014Z,1006.625
2022-10-16T10:43:08.171Z,1006.76
2022-10-16T11:03:08.207Z,1006.862
2022-10-16T11:23:08.324Z,1006.896
2022-10-16T11:43:07.342Z,1006.996
2022-10-16T12:03:08.348Z,1006.952
2022-10-16T12:23:07.209Z,1007.102
2022-10-16T12:43:08.088Z,1007.182
2022-10-16T13:03:13.165Z,1007.377
2022-10-16T13:23:08.033Z,1007.542
2022-10-16T13:43:07.965Z,1007.676
2022-10-16T14:03:09.124Z,1007.647
2022-10-16T14:23:08.020Z,1007.887
2022-10-16T14:43:07.966Z,1007.791
2022-10-16T15:03:08.859Z,1007.769
2022-10-16T15:23:07.559Z,1008.046
2022-10-16T15:43:07.598Z,1007.971
2022-10-16T16:03:08.533Z,1008.036
2022-10-16T16:23:07.615Z,1008.219
2022-10-16T16:43:07.616Z,1008.292
2022-10-16T17:03:08.745Z,1008.485
2022-10-16T17:23:07.550Z,1008.633
2022-10-16T17:43:07.606Z,1008.783
2022-10-16T18:03:08.413Z,1008.876
2022-10-16T18:23:07.144Z,1009.001
2022-10-16T18:43:07.130Z,1009.175
2022-10-16T19:03:09.074Z,1009.056
2022-10-16T19:23:07.393Z,1009.041
2022-10-16T19:43:07.429Z,1009.08
2022-10-16T20:03:08.363Z,1009.097
2022-10-16T20:23:07.227Z,1009.787
2022-10-16T20:43:07.129Z,1009.954
2022-10-16T21:03:09.117Z,1009.653
2022-10-16T21:23:07.962Z,1009.565
2022-10-16T21:43:08.269Z,1009.417
2022-10-16T22:03:08.331Z,1009.546
2022-10-16T22:23:08.019Z,1009.279
2022-10-16T22:43:07.738Z,1009.222
2022-10-16T23:03:08.721Z,1009.158
2022-10-16T23:23:07.385Z,1009.197
2022-10-16T23:43:08.149Z,1009.169
